Time;durP1;ratioP1;P1;durP2;ratioP2;P2;SDS_P1;SDS_P2;PMS_P1;PMS_P2;Temp;Humidity;BMP_temperature;BMP_pressure;BME280_temperature;BME280_humidity;BME280_pressure;Samples;Min_cycle;Max_cycle;Signal;HPM_P1;HPM_P2
2023/01/05 00:00:09;;;;;;;0.52;0.17;;;;;;;;;;4171793;28;20057;-40
2023/01/05 00:02:14;;;;;;;0.52;0.30;;;;;;;;;;4188313;28;20098;-41
2023/01/05 00:04:15;;;;;;;0.30;0.22;;;;;;;;;;4183502;28;20492;-41
2023/01/05 00:06:17;;;;;;;0.17;0.10;;;;;;;;;;4178059;28;20416;-41
2023/01/05 00:08:18;;;;;;;0.75;0.10;;;;;;;;;;4189819;28;20083;-41
2023/01/05 00:24:21;;;;;;;0.10;0.10;;;;;;;;;;4193557;28;20346;-40
2023/01/05 00:26:22;;;;;;;0.40;0.13;;;;;;;;;;4197919;28;20435;-41
2023/01/05 00:28:24;;;;;;;0.10;0.10;;;;;;;;;;4198870;28;20462;-40
2023/01/05 00:30:28;;;;;;;0.15;0.10;;;;;;;;;;4193615;28;20098;-40
2023/01/05 00:32:29;;;;;;;0.20;0.10;;;;;;;;;;4198683;28;20496;-41
2023/01/05 00:34:30;;;;;;;0.20;0.10;;;;;;;;;;4197024;28;20063;-41
2023/01/05 00:36:31;;;;;;;0.00;0.00;;;;;;;;;;4182428;28;20049;-41
2023/01/05 00:38:32;;;;;;;0.22;0.10;;;;;;;;;;4182345;28;20451;-41
2023/01/05 00:40:34;;;;;;;0.28;0.10;;;;;;;;;;4192710;28;20044;-41
2023/01/05 00:42:36;;;;;;;0.25;0.10;;;;;;;;;;4184572;28;20053;-41
2023/01/05 00:44:37;;;;;;;0.63;0.10;;;;;;;;;;4185939;28;20087;-41
2023/01/05 00:46:38;;;;;;;0.10;0.10;;;;;;;;;;4198921;28;20057;-41
2023/01/05 00:48:40;;;;;;;1.67;0.10;;;;;;;;;;4198780;28;20125;-41
2023/01/05 00:50:41;;;;;;;0.63;0.10;;;;;;;;;;4198585;28;20057;-43
2023/01/05 00:52:43;;;;;;;0.10;0.10;;;;;;;;;;4198198;28;20635;-41
2023/01/05 00:54:44;;;;;;;0.15;0.13;;;;;;;;;;4180241;28;20535;-41
2023/01/05 00:56:48;;;;;;;0.35;0.20;;;;;;;;;;4164736;28;20107;-41
2023/01/05 00:58:52;;;;;;;0.00;0.00;;;;;;;;;;4197077;28;20079;-41
2023/01/05 01:00:54;;;;;;;0.50;0.10;;;;;;;;;;4164250;28;20102;-41
2023/01/05 01:02:55;;;;;;;0.20;0.10;;;;;;;;;;4187458;28;20052;-41
2023/01/05 01:04:56;;;;;;;0.52;0.10;;;;;;;;;;4189116;28;20573;-41
2023/01/05 01:06:58;;;;;;;0.25;0.13;;;;;;;;;;4164193;28;20053;-41
2023/01/05 01:08:59;;;;;;;0.10;0.10;;;;;;;;;;4181347;28;20057;-41
2023/01/05 01:11:08;;;;;;;0.30;0.25;;;;;;;;;;4181606;28;20107;-41
2023/01/05 01:13:09;;;;;;;0.10;0.10;;;;;;;;;;4173222;28;20057;-41
2023/01/05 01:15:10;;;;;;;0.00;0.00;;;;;;;;;;4180463;28;20126;-41
2023/01/05 01:17:11;;;;;;;0.45;0.13;;;;;;;;;;4177629;28;20091;-41
2023/01/05 01:19:15;;;;;;;0.38;0.20;;;;;;;;;;4181640;28;20057;-41
2023/01/05 01:21:17;;;;;;;0.28;0.10;;;;;;;;;;4164217;28;20436;-41
2023/01/05 01:23:20;;;;;;;0.10;0.10;;;;;;;;;;4192037;28;20052;-41
2023/01/05 01:25:21;;;;;;;0.10;0.10;;;;;;;;;;4197296;28;20102;-41
2023/01/05 01:27:23;;;;;;;0.20;0.10;;;;;;;;;;4197938;28;20056;-41
2023/01/05 01:29:24;;;;;;;0.63;0.20;;;;;;;;;;4190332;28;20099;-41
2023/01/05 01:31:26;;;;;;;0.10;0.10;;;;;;;;;;4192083;28;20052;-41
2023/01/05 01:33:28;;;;;;;0.10;0.10;;;;;;;;;;4166340;28;20058;-40
2023/01/05 01:35:29;;;;;;;0.05;0.00;;;;;;;;;;4181274;28;20057;-41
2023/01/05 01:37:30;;;;;;;0.05;0.05;;;;;;;;;;4181422;28;20140;-41
2023/01/05 01:39:33;;;;;;;0.93;0.15;;;;;;;;;;4173073;28;20100;-41
2023/01/05 01:41:39;;;;;;;0.30;0.20;;;;;;;;;;4163712;28;20099;-40
2023/01/05 01:43:43;;;;;;;0.25;0.17;;;;;;;;;;4163529;28;20061;-40
2023/01/05 01:45:45;;;;;;;0.08;0.08;;;;;;;;;;4170341;28;20049;-41
2023/01/05 01:47:56;;;;;;;0.10;0.10;;;;;;;;;;4163865;28;20057;-41
2023/01/05 01:50:00;;;;;;;0.40;0.10;;;;;;;;;;4162876;28;20119;-40
2023/01/05 01:52:01;;;;;;;0.10;0.10;;;;;;;;;;4167938;28;20045;-41
2023/01/05 01:54:08;;;;;;;0.10;0.10;;;;;;;;;;4197404;28;20048;-43
2023/01/05 01:56:13;;;;;;;0.10;0.10;;;;;;;;;;4163501;28;20058;-41
2023/01/05 01:58:16;;;;;;;0.03;0.03;;;;;;;;;;4178127;28;20463;-41
2023/01/05 02:00:20;;;;;;;0.57;0.10;;;;;;;;;;4147180;28;20058;-41
2023/01/05 02:02:25;;;;;;;1.02;0.10;;;;;;;;;;4185836;28;20049;-41
2023/01/05 02:04:29;;;;;;;0.28;0.13;;;;;;;;;;4183559;28;20057;-41
2023/01/05 02:06:31;;;;;;;1.25;0.30;;;;;;;;;;4180607;28;20107;-41
2023/01/05 02:08:33;;;;;;;0.32;0.10;;;;;;;;;;4186304;28;20056;-41
2023/01/05 02:10:58;;;;;;;0.17;0.00;;;;;;;;;;4196878;28;20535;-41
2023/01/05 02:13:16;;;;;;;0.30;0.13;;;;;;;;;;4196951;28;20466;-41
2023/01/05 02:15:28;;;;;;;0.32;0.10;;;;;;;;;;4156252;28;20391;-41
2023/01/05 02:17:42;;;;;;;0.10;0.10;;;;;;;;;;4180949;28;20061;-41
2023/01/05 02:20:01;;;;;;;0.50;0.17;;;;;;;;;;4182975;28;20652;-41
2023/01/05 02:22:17;;;;;;;0.23;0.10;;;;;;;;;;4197486;28;20048;-41
2023/01/05 02:24:39;;;;;;;0.98;0.10;;;;;;;;;;4179012;28;20475;-38
2023/01/05 02:27:15;;;;;;;0.10;0.10;;;;;;;;;;4152613;28;20421;-41
2023/01/05 02:29:48;;;;;;;0.17;0.10;;;;;;;;;;4163189;28;20273;-41
2023/01/05 02:31:56;;;;;;;0.30;0.08;;;;;;;;;;4197352;28;20060;-41
2023/01/05 02:34:13;;;;;;;0.20;0.10;;;;;;;;;;4179022;28;20060;-40
2023/01/05 02:36:43;;;;;;;0.10;0.10;;;;;;;;;;4162785;28;20107;-41
2023/01/05 02:38:51;;;;;;;0.28;0.10;;;;;;;;;;4172984;28;20083;-41
2023/01/05 02:41:06;;;;;;;0.20;0.10;;;;;;;;;;4175514;28;20451;-40
2023/01/05 02:43:10;;;;;;;0.65;0.10;;;;;;;;;;4162697;28;20107;-41
2023/01/05 02:45:15;;;;;;;0.47;0.10;;;;;;;;;;4162634;28;20099;-41
2023/01/05 02:47:26;;;;;;;0.32;0.10;;;;;;;;;;4175812;28;20132;-41
2023/01/05 02:49:28;;;;;;;0.30;0.10;;;;;;;;;;4166616;28;20056;-41
2023/01/05 02:51:38;;;;;;;0.30;0.10;;;;;;;;;;4171622;28;20103;-41
2023/01/05 02:53:43;;;;;;;0.25;0.10;;;;;;;;;;4157616;28;20107;-41
2023/01/05 02:55:48;;;;;;;0.13;0.13;;;;;;;;;;4177088;28;20069;-43
2023/01/05 02:57:56;;;;;;;0.10;0.10;;;;;;;;;;4151769;28;20267;-41
2023/01/05 03:00:00;;;;;;;0.38;0.10;;;;;;;;;;4172066;28;20536;-41
2023/01/05 03:02:06;;;;;;;0.20;0.05;;;;;;;;;;4162006;28;20083;-41
2023/01/05 03:04:19;;;;;;;0.30;0.20;;;;;;;;;;4182953;28;20061;-41
2023/01/05 03:06:33;;;;;;;0.52;0.10;;;;;;;;;;4153702;28;20107;-41
2023/01/05 03:08:38;;;;;;;0.45;0.10;;;;;;;;;;4178663;28;20053;-41
2023/01/05 03:15:32;;;;;;;0.35;0.15;;;;;;;;;;4148717;28;20053;-41
2023/01/05 03:17:44;;;;;;;0.40;0.10;;;;;;;;;;4151660;28;20053;-40
2023/01/05 03:19:47;;;;;;;0.10;0.10;;;;;;;;;;4145848;28;20050;-41
2023/01/05 03:36:23;;;;;;;0.10;0.10;;;;;;;;;;4150490;28;20182;-41
2023/01/05 03:38:41;;;;;;;0.10;0.10;;;;;;;;;;4145621;28;20053;-41
2023/01/05 03:40:44;;;;;;;0.10;0.10;;;;;;;;;;4145005;28;20050;-41
2023/01/05 03:42:47;;;;;;;0.20;0.20;;;;;;;;;;4172359;28;20485;-41
2023/01/05 03:44:49;;;;;;;0.10;0.10;;;;;;;;;;4177918;28;20123;-40
2023/01/05 03:46:52;;;;;;;0.10;0.10;;;;;;;;;;4145642;28;20057;-41
2023/01/05 03:48:53;;;;;;;0.00;0.00;;;;;;;;;;4145346;28;20065;-41
2023/01/05 03:50:55;;;;;;;0.30;0.10;;;;;;;;;;4145542;28;20104;-41
2023/01/05 03:52:58;;;;;;;0.38;0.22;;;;;;;;;;4145467;28;20429;-41
2023/01/05 03:55:04;;;;;;;0.17;0.10;;;;;;;;;;4148469;28;20065;-41
2023/01/05 03:57:05;;;;;;;0.70;0.17;;;;;;;;;;4179547;28;20492;-41
2023/01/05 03:59:07;;;;;;;0.30;0.10;;;;;;;;;;4161784;28;20057;-41
2023/01/05 04:01:11;;;;;;;0.10;0.10;;;;;;;;;;4141868;28;20559;-41
2023/01/05 04:03:13;;;;;;;0.20;0.10;;;;;;;;;;4148406;28;20049;-41
2023/01/05 04:05:15;;;;;;;0.05;0.00;;;;;;;;;;4179232;28;20056;-41
2023/01/05 04:07:17;;;;;;;0.10;0.10;;;;;;;;;;4161864;28;20054;-41
2023/01/05 04:09:18;;;;;;;0.10;0.10;;;;;;;;;;4161289;28;20413;-41
2023/01/05 04:11:22;;;;;;;0.47;0.28;;;;;;;;;;4153548;28;20061;-41
2023/01/05 04:13:31;;;;;;;0.10;0.00;;;;;;;;;;4178022;28;20053;-41
2023/01/05 04:15:33;;;;;;;0.00;0.00;;;;;;;;;;4195925;28;20561;-41
2023/01/05 04:17:36;;;;;;;0.10;0.10;;;;;;;;;;4178084;28;20052;-41
2023/01/05 04:19:37;;;;;;;0.10;0.10;;;;;;;;;;4177730;28;20528;-41
2023/01/05 04:21:39;;;;;;;0.10;0.10;;;;;;;;;;4178388;28;20127;-41
2023/01/05 04:23:42;;;;;;;0.55;0.20;;;;;;;;;;4177999;28;20485;-41
2023/01/05 04:25:45;;;;;;;1.55;0.20;;;;;;;;;;4161113;28;20057;-41
2023/01/05 04:27:53;;;;;;;0.20;0.10;;;;;;;;;;4161669;28;20057;-41
2023/01/05 04:29:55;;;;;;;0.25;0.20;;;;;;;;;;4167909;28;20053;-41
2023/01/05 04:31:56;;;;;;;0.20;0.10;;;;;;;;;;4195886;28;20052;-41
2023/01/05 04:33:58;;;;;;;0.13;0.10;;;;;;;;;;4161397;28;20115;-41
2023/01/05 04:36:01;;;;;;;0.13;0.10;;;;;;;;;;4161684;28;20061;-41
2023/01/05 04:38:05;;;;;;;0.17;0.10;;;;;;;;;;4183858;28;20048;-41
2023/01/05 04:40:08;;;;;;;0.15;0.10;;;;;;;;;;4177374;28;20053;-41
2023/01/05 04:42:16;;;;;;;0.13;0.13;;;;;;;;;;4164588;28;20076;-41
2023/01/05 04:44:19;;;;;;;0.10;0.00;;;;;;;;;;4132335;28;20065;-40
2023/01/05 04:46:22;;;;;;;0.20;0.00;;;;;;;;;;4161529;28;20054;-41
2023/01/05 04:48:25;;;;;;;0.40;0.20;;;;;;;;;;4161343;28;20088;-41
2023/01/05 04:50:28;;;;;;;0.10;0.10;;;;;;;;;;4177737;28;20111;-40
2023/01/05 04:52:31;;;;;;;0.10;0.10;;;;;;;;;;4178022;28;20049;-41
2023/01/05 04:54:33;;;;;;;0.20;0.10;;;;;;;;;;4177207;28;20111;-41
2023/01/05 04:56:34;;;;;;;0.25;0.10;;;;;;;;;;4177867;28;20500;-41
2023/01/05 04:58:38;;;;;;;0.17;0.15;;;;;;;;;;4174225;28;20049;-41
2023/01/05 05:00:39;;;;;;;0.10;0.10;;;;;;;;;;4192237;28;20393;-41
2023/01/05 05:02:41;;;;;;;0.43;0.10;;;;;;;;;;4168954;28;20052;-41
2023/01/05 05:04:44;;;;;;;0.47;0.10;;;;;;;;;;4180570;28;20103;-41
2023/01/05 05:06:45;;;;;;;0.32;0.10;;;;;;;;;;4185043;28;20091;-41
2023/01/05 05:08:49;;;;;;;0.30;0.30;;;;;;;;;;4165152;28;20057;-41
2023/01/05 05:10:51;;;;;;;0.25;0.20;;;;;;;;;;4168689;28;20065;-41
2023/01/05 05:12:54;;;;;;;0.10;0.10;;;;;;;;;;4172180;28;20050;-41
2023/01/05 05:14:57;;;;;;;0.40;0.20;;;;;;;;;;4168673;28;20143;-41
2023/01/05 05:16:58;;;;;;;0.57;0.10;;;;;;;;;;4162655;28;20057;-41
2023/01/05 05:19:00;;;;;;;0.45;0.22;;;;;;;;;;4198337;28;20064;-41
2023/01/05 05:21:02;;;;;;;0.00;0.00;;;;;;;;;;4172581;28;20064;-41
2023/01/05 05:23:07;;;;;;;0.32;0.20;;;;;;;;;;4148194;28;20509;-41
2023/01/05 05:25:09;;;;;;;0.25;0.10;;;;;;;;;;4176712;28;20057;-41
2023/01/05 05:27:15;;;;;;;0.10;0.08;;;;;;;;;;4185724;28;20082;-41
2023/01/05 05:29:17;;;;;;;0.22;0.20;;;;;;;;;;4180093;28;20052;-41
2023/01/05 05:31:18;;;;;;;0.38;0.17;;;;;;;;;;4198062;28;20439;-40
2023/01/05 05:33:19;;;;;;;0.50;0.20;;;;;;;;;;4198012;28;20058;-41
2023/01/05 05:35:21;;;;;;;0.20;0.10;;;;;;;;;;4193600;28;20405;-41
2023/01/05 05:37:22;;;;;;;0.20;0.20;;;;;;;;;;4181546;28;20049;-41
2023/01/05 05:39:24;;;;;;;0.10;0.10;;;;;;;;;;4191831;28;20065;-41
2023/01/05 05:41:25;;;;;;;0.10;0.10;;;;;;;;;;4197638;28;20488;-41
2023/01/05 05:43:26;;;;;;;0.20;0.10;;;;;;;;;;4194576;28;20057;-41
2023/01/05 05:45:28;;;;;;;0.28;0.10;;;;;;;;;;4181381;28;20053;-41
2023/01/05 05:47:29;;;;;;;0.85;0.20;;;;;;;;;;4163668;28;20111;-41
2023/01/05 05:49:31;;;;;;;0.20;0.10;;;;;;;;;;4176141;28;20115;-41
2023/01/05 05:51:32;;;;;;;0.10;0.05;;;;;;;;;;4195178;28;20106;-41
2023/01/05 05:53:33;;;;;;;0.15;0.13;;;;;;;;;;4181268;28;20099;-41
2023/01/05 05:55:34;;;;;;;0.28;0.17;;;;;;;;;;4181010;28;20060;-41
2023/01/05 05:57:35;;;;;;;0.10;0.05;;;;;;;;;;4181419;28;20052;-41
2023/01/05 05:59:37;;;;;;;0.20;0.10;;;;;;;;;;4194318;28;20109;-41
2023/01/05 06:01:38;;;;;;;0.30;0.20;;;;;;;;;;4187802;28;20447;-40
2023/01/05 06:03:39;;;;;;;0.30;0.20;;;;;;;;;;4190833;28;20065;-41
2023/01/05 06:05:40;;;;;;;0.10;0.10;;;;;;;;;;4195528;28;20222;-40
2023/01/05 06:07:42;;;;;;;0.13;0.13;;;;;;;;;;4195162;28;20500;-41
2023/01/05 06:09:43;;;;;;;0.40;0.30;;;;;;;;;;4194926;28;20103;-41
2023/01/05 06:11:45;;;;;;;0.30;0.25;;;;;;;;;;4177521;28;20451;-40
2023/01/05 06:13:47;;;;;;;0.20;0.20;;;;;;;;;;4177472;28;20107;-41
2023/01/05 06:15:49;;;;;;;0.20;0.20;;;;;;;;;;4177830;28;20061;-41
2023/01/05 06:17:51;;;;;;;0.30;0.20;;;;;;;;;;4194754;28;20067;-41
2023/01/05 06:19:52;;;;;;;0.30;0.20;;;;;;;;;;4189410;28;20057;-40
2023/01/05 06:21:53;;;;;;;1.10;0.30;;;;;;;;;;4178744;28;20409;-41
2023/01/05 06:23:54;;;;;;;0.30;0.20;;;;;;;;;;4172599;28;20057;-40
2023/01/05 06:25:55;;;;;;;0.50;0.20;;;;;;;;;;4181117;28;20056;-41
2023/01/05 06:27:56;;;;;;;0.55;0.40;;;;;;;;;;4177330;28;20064;-41
2023/01/05 06:29:58;;;;;;;1.17;0.30;;;;;;;;;;4168387;28;20486;-43
2023/01/05 06:31:59;;;;;;;0.50;0.30;;;;;;;;;;4177136;28;20497;-40
2023/01/05 06:34:00;;;;;;;0.38;0.20;;;;;;;;;;4191940;28;20060;-41
2023/01/05 06:36:02;;;;;;;0.57;0.35;;;;;;;;;;4177395;28;20839;-40
2023/01/05 06:38:03;;;;;;;0.85;0.50;;;;;;;;;;4178401;28;20053;-40
2023/01/05 06:40:05;;;;;;;0.45;0.28;;;;;;;;;;4178022;28;20055;-40
2023/01/05 06:42:07;;;;;;;0.50;0.32;;;;;;;;;;4160739;28;20452;-40
2023/01/05 06:44:08;;;;;;;0.98;0.55;;;;;;;;;;4180510;28;20068;-39
2023/01/05 06:46:09;;;;;;;0.60;0.40;;;;;;;;;;4194858;28;20052;-40
2023/01/05 06:48:11;;;;;;;0.40;0.30;;;;;;;;;;4181596;28;20075;-39
2023/01/05 06:50:12;;;;;;;0.40;0.30;;;;;;;;;;4178546;28;21627;-39
2023/01/05 06:52:14;;;;;;;0.50;0.20;;;;;;;;;;4175887;28;20139;-39
2023/01/05 06:54:15;;;;;;;0.52;0.43;;;;;;;;;;4171586;28;20080;-39
2023/01/05 06:56:17;;;;;;;0.57;0.30;;;;;;;;;;4177875;28;20079;-41
2023/01/05 06:58:18;;;;;;;0.70;0.40;;;;;;;;;;4176764;28;20052;-38
2023/01/05 07:00:19;;;;;;;1.33;0.40;;;;;;;;;;4170372;28;20049;-40
2023/01/05 07:02:20;;;;;;;0.38;0.20;;;;;;;;;;4191486;28;20053;-40
2023/01/05 07:04:22;;;;;;;0.80;0.50;;;;;;;;;;4183155;28;20451;-40
2023/01/05 07:06:23;;;;;;;0.40;0.30;;;;;;;;;;4191342;28;20484;-40
2023/01/05 07:08:25;;;;;;;0.45;0.40;;;;;;;;;;4192755;28;20078;-40
2023/01/05 07:10:26;;;;;;;0.30;0.25;;;;;;;;;;4188858;28;20052;-38
2023/01/05 07:12:27;;;;;;;0.30;0.20;;;;;;;;;;4186911;28;20503;-41
2023/01/05 07:14:29;;;;;;;0.88;0.57;;;;;;;;;;4189229;28;20518;-41
2023/01/05 07:16:30;;;;;;;2.55;0.30;;;;;;;;;;4190604;28;20059;-41
2023/01/05 07:18:31;;;;;;;0.95;0.38;;;;;;;;;;4191394;28;20503;-41
2023/01/05 07:20:33;;;;;;;0.52;0.30;;;;;;;;;;4193167;28;20094;-42
2023/01/05 07:22:34;;;;;;;0.52;0.38;;;;;;;;;;4168996;28;20101;-40
2023/01/05 07:24:35;;;;;;;0.82;0.47;;;;;;;;;;4190051;28;20571;-40
2023/01/05 07:26:37;;;;;;;0.57;0.40;;;;;;;;;;4187050;28;20047;-40
2023/01/05 07:28:39;;;;;;;0.70;0.35;;;;;;;;;;4193601;28;20051;-40
2023/01/05 07:30:39;;;;;;;0.95;0.57;;;;;;;;;;4190748;28;20213;-40
2023/01/05 07:32:41;;;;;;;0.28;0.13;;;;;;;;;;4189950;28;20060;-40
2023/01/05 07:34:42;;;;;;;0.57;0.30;;;;;;;;;;4188411;28;20094;-39
2023/01/05 07:36:45;;;;;;;0.20;0.20;;;;;;;;;;4186650;28;20053;-41
2023/01/05 07:38:47;;;;;;;0.77;0.50;;;;;;;;;;4192521;28;20056;-40
2023/01/05 07:40:48;;;;;;;0.30;0.30;;;;;;;;;;4193114;28;20060;-40
2023/01/05 07:42:52;;;;;;;0.60;0.30;;;;;;;;;;4189750;28;20098;-40
2023/01/05 07:44:54;;;;;;;0.98;0.50;;;;;;;;;;4168081;28;20512;-40
2023/01/05 07:46:55;;;;;;;0.50;0.40;;;;;;;;;;4180851;28;20056;-39
2023/01/05 07:48:57;;;;;;;0.50;0.35;;;;;;;;;;4167559;28;20154;-40
2023/01/05 07:51:03;;;;;;;0.88;0.50;;;;;;;;;;4178218;28;20110;-41
2023/01/05 07:53:04;;;;;;;0.38;0.30;;;;;;;;;;4185300;28;20048;-40
2023/01/05 07:55:06;;;;;;;0.82;0.20;;;;;;;;;;4188633;28;20056;-40
2023/01/05 07:57:07;;;;;;;0.45;0.25;;;;;;;;;;4188850;28;20060;-38
2023/01/05 07:59:08;;;;;;;0.68;0.40;;;;;;;;;;4187296;28;20082;-39
2023/01/05 08:01:11;;;;;;;0.45;0.40;;;;;;;;;;4185647;28;20553;-39
2023/01/05 08:03:14;;;;;;;0.50;0.45;;;;;;;;;;4190133;28;20190;-40
2023/01/05 08:05:15;;;;;;;0.70;0.47;;;;;;;;;;4191572;28;20053;-40
2023/01/05 08:07:16;;;;;;;0.40;0.32;;;;;;;;;;4188708;28;20122;-39
2023/01/05 08:11:37;;;;;;;0.77;0.40;;;;;;;;;;4180902;28;20055;-39
2023/01/05 08:15:59;;;;;;;0.43;0.30;;;;;;;;;;4180849;28;20061;-39
2023/01/05 08:18:00;;;;;;;0.50;0.30;;;;;;;;;;4183872;28;20056;-39
2023/01/05 08:20:01;;;;;;;0.70;0.30;;;;;;;;;;4190534;28;20426;-39
2023/01/05 08:22:03;;;;;;;0.70;0.30;;;;;;;;;;4182230;28;20114;-39
2023/01/05 08:24:05;;;;;;;0.80;0.30;;;;;;;;;;4186425;28;20431;-39
2023/01/05 08:26:09;;;;;;;2.65;0.40;;;;;;;;;;4183102;28;20441;-39
2023/01/05 08:28:10;;;;;;;0.50;0.30;;;;;;;;;;4164665;28;20490;-39
2023/01/05 08:30:12;;;;;;;0.65;0.40;;;;;;;;;;4172780;28;20453;-40
2023/01/05 08:32:14;;;;;;;0.70;0.40;;;;;;;;;;4174079;28;20142;-40
2023/01/05 08:34:15;;;;;;;0.70;0.38;;;;;;;;;;4182835;28;20083;-37
2023/01/05 08:36:19;;;;;;;0.28;0.28;;;;;;;;;;4180667;28;20053;-37
2023/01/05 08:38:21;;;;;;;0.80;0.40;;;;;;;;;;4186142;28;20500;-40
2023/01/05 08:40:26;;;;;;;0.88;0.40;;;;;;;;;;4188230;28;20052;-36
2023/01/05 08:42:27;;;;;;;3.60;0.40;;;;;;;;;;4184334;28;20053;-38
2023/01/05 08:44:28;;;;;;;0.32;0.22;;;;;;;;;;4179961;28;20064;-38
2023/01/05 08:46:31;;;;;;;0.85;0.50;;;;;;;;;;4168354;28;20045;-39
2023/01/05 08:48:33;;;;;;;0.68;0.40;;;;;;;;;;4169974;28;20093;-36
2023/01/05 08:50:35;;;;;;;0.40;0.30;;;;;;;;;;4189093;28;20449;-40
2023/01/05 08:52:37;;;;;;;0.50;0.40;;;;;;;;;;4172967;28;20076;-43
2023/01/05 08:54:38;;;;;;;0.63;0.30;;;;;;;;;;4187162;28;20064;-39
2023/01/05 08:56:41;;;;;;;0.20;0.20;;;;;;;;;;4185805;28;20774;-39
2023/01/05 08:58:43;;;;;;;0.55;0.40;;;;;;;;;;4188843;28;20064;-37
2023/01/05 09:00:44;;;;;;;0.73;0.50;;;;;;;;;;4166193;28;20215;-39
2023/01/05 09:02:46;;;;;;;0.40;0.35;;;;;;;;;;4184017;28;20079;-39
2023/01/05 09:04:47;;;;;;;0.35;0.32;;;;;;;;;;4187681;28;20882;-39
2023/01/05 09:06:48;;;;;;;0.35;0.25;;;;;;;;;;4188313;28;20053;-40
2023/01/05 09:08:50;;;;;;;0.57;0.55;;;;;;;;;;4188376;28;20053;-39
2023/01/05 09:10:51;;;;;;;0.60;0.40;;;;;;;;;;4172217;28;20135;-40
2023/01/05 09:12:53;;;;;;;0.95;0.40;;;;;;;;;;4181240;28;20056;-37
2023/01/05 09:14:54;;;;;;;2.15;0.50;;;;;;;;;;4186029;28;20499;-36
2023/01/05 09:16:55;;;;;;;0.60;0.50;;;;;;;;;;4178147;28;20098;-39
2023/01/05 09:18:58;;;;;;;0.57;0.40;;;;;;;;;;4163506;28;21083;-39
2023/01/05 09:20:59;;;;;;;0.65;0.55;;;;;;;;;;4162660;28;20463;-40
2023/01/05 09:23:01;;;;;;;0.63;0.40;;;;;;;;;;4188475;28;20049;-40
2023/01/05 09:25:03;;;;;;;0.90;0.43;;;;;;;;;;4154576;28;20057;-40
2023/01/05 09:27:06;;;;;;;0.65;0.40;;;;;;;;;;4183524;28;20412;-40
2023/01/05 09:29:08;;;;;;;1.20;0.35;;;;;;;;;;4185953;28;20049;-40
2023/01/05 09:31:12;;;;;;;1.73;0.70;;;;;;;;;;4187301;28;20569;-40
2023/01/05 09:33:13;;;;;;;0.77;0.50;;;;;;;;;;4189957;28;20056;-41
2023/01/05 09:35:15;;;;;;;0.70;0.43;;;;;;;;;;4170717;28;20056;-40
2023/01/05 09:37:16;;;;;;;0.95;0.43;;;;;;;;;;4182298;28;20060;-40
2023/01/05 09:39:17;;;;;;;0.43;0.32;;;;;;;;;;4184440;28;20114;-39
2023/01/05 09:41:22;;;;;;;0.52;0.40;;;;;;;;;;4187654;28;20230;-42
2023/01/05 09:43:32;;;;;;;0.70;0.40;;;;;;;;;;4188440;28;20049;-40
2023/01/05 09:45:33;;;;;;;0.68;0.45;;;;;;;;;;4186035;28;20331;-40
2023/01/05 09:47:40;;;;;;;1.98;0.47;;;;;;;;;;4177819;28;21537;-40
2023/01/05 09:49:42;;;;;;;1.30;0.60;;;;;;;;;;4167266;28;20540;-40
2023/01/05 09:51:43;;;;;;;0.60;0.40;;;;;;;;;;4179152;28;20044;-40
2023/01/05 09:53:45;;;;;;;0.57;0.43;;;;;;;;;;4165111;28;20573;-39
2023/01/05 09:55:48;;;;;;;0.50;0.50;;;;;;;;;;4172424;28;20099;-39
2023/01/05 09:58:11;;;;;;;0.40;0.40;;;;;;;;;;4187152;28;20427;-40
2023/01/05 10:00:15;;;;;;;0.60;0.32;;;;;;;;;;4166487;28;20060;-37
2023/01/05 10:02:41;;;;;;;0.50;0.43;;;;;;;;;;4165566;28;20088;-39
2023/01/05 10:04:42;;;;;;;0.43;0.40;;;;;;;;;;4137270;28;20654;-38
2023/01/05 10:06:46;;;;;;;0.40;0.30;;;;;;;;;;4165943;28;20057;-40
2023/01/05 10:08:49;;;;;;;0.70;0.35;;;;;;;;;;4166057;28;20057;-39
2023/01/05 10:13:25;;;;;;;0.38;0.25;;;;;;;;;;4187839;28;20049;-40
2023/01/05 10:15:32;;;;;;;0.40;0.40;;;;;;;;;;4171454;28;20574;-40
2023/01/05 10:17:37;;;;;;;0.95;0.40;;;;;;;;;;4167773;28;20060;-40
2023/01/05 10:19:38;;;;;;;0.52;0.40;;;;;;;;;;4164006;28;20064;-40
2023/01/05 10:21:42;;;;;;;0.88;0.38;;;;;;;;;;4169690;28;20083;-40
2023/01/05 10:24:32;;;;;;;0.77;0.50;;;;;;;;;;4187118;28;20056;-40
2023/01/05 10:26:44;;;;;;;0.45;0.40;;;;;;;;;;4167908;28;20413;-41
2023/01/05 10:29:14;;;;;;;1.10;0.40;;;;;;;;;;4168148;28;20531;-41
2023/01/05 10:31:23;;;;;;;1.02;0.60;;;;;;;;;;4186372;28;20052;-40
2023/01/05 10:33:57;;;;;;;0.45;0.30;;;;;;;;;;4163726;28;20175;-41
2023/01/05 10:36:32;;;;;;;0.68;0.52;;;;;;;;;;4170815;28;20059;-40
2023/01/05 10:38:58;;;;;;;0.38;0.30;;;;;;;;;;4169583;28;20497;-41
2023/01/05 10:41:05;;;;;;;0.50;0.30;;;;;;;;;;4180715;28;20424;-39
2023/01/05 10:43:30;;;;;;;1.75;0.47;;;;;;;;;;4184534;28;20202;-39
2023/01/05 10:45:32;;;;;;;1.05;0.40;;;;;;;;;;4186713;28;20531;-41
2023/01/05 10:47:36;;;;;;;0.30;0.30;;;;;;;;;;4165047;28;20115;-40
2023/01/05 10:49:39;;;;;;;0.55;0.30;;;;;;;;;;4182493;28;20056;-41
2023/01/05 10:51:41;;;;;;;0.70;0.47;;;;;;;;;;4164873;28;20073;-41
2023/01/05 10:53:43;;;;;;;0.63;0.30;;;;;;;;;;4171040;28;20457;-39
2023/01/05 10:55:57;;;;;;;1.17;0.40;;;;;;;;;;4160094;28;20061;-38
2023/01/05 10:57:58;;;;;;;0.73;0.40;;;;;;;;;;4167146;28;20061;-41
2023/01/05 11:00:18;;;;;;;0.43;0.40;;;;;;;;;;4177678;28;20055;-41
2023/01/05 11:02:19;;;;;;;0.90;0.50;;;;;;;;;;4164262;28;20053;-41
2023/01/05 11:04:22;;;;;;;0.55;0.40;;;;;;;;;;4181959;28;20076;-41
2023/01/05 11:06:29;;;;;;;0.50;0.47;;;;;;;;;;4165022;28;20045;-41
2023/01/05 11:08:31;;;;;;;1.90;0.47;;;;;;;;;;4163881;28;20049;-41
2023/01/05 11:10:40;;;;;;;0.85;0.40;;;;;;;;;;4164598;28;20063;-41
2023/01/05 11:12:50;;;;;;;0.65;0.52;;;;;;;;;;4172553;28;20060;-41
2023/01/05 11:14:54;;;;;;;0.40;0.40;;;;;;;;;;4169596;28;20182;-41
2023/01/05 11:17:01;;;;;;;0.73;0.40;;;;;;;;;;4183322;28;20053;-40
2023/01/05 11:19:06;;;;;;;0.73;0.40;;;;;;;;;;4182341;28;20102;-41
2023/01/05 11:21:11;;;;;;;2.28;0.60;;;;;;;;;;4167007;28;20163;-38
2023/01/05 11:23:33;;;;;;;1.35;0.50;;;;;;;;;;4178324;28;20060;-40
2023/01/05 11:25:34;;;;;;;0.95;0.40;;;;;;;;;;4183370;28;20056;-41
2023/01/05 11:27:36;;;;;;;1.10;0.50;;;;;;;;;;4190659;28;20052;-41
2023/01/05 11:29:37;;;;;;;0.30;0.30;;;;;;;;;;4175646;28;20061;-41
2023/01/05 11:31:51;;;;;;;0.60;0.50;;;;;;;;;;4165149;28;20523;-41
2023/01/05 11:33:57;;;;;;;1.67;0.50;;;;;;;;;;4182852;28;20060;-41
2023/01/05 11:35:58;;;;;;;0.55;0.45;;;;;;;;;;4175847;28;20417;-41
2023/01/05 11:37:59;;;;;;;0.38;0.30;;;;;;;;;;4157933;28;20339;-40
2023/01/05 11:40:03;;;;;;;1.23;0.52;;;;;;;;;;4182203;28;20063;-41
2023/01/05 11:42:13;;;;;;;0.50;0.50;;;;;;;;;;4177385;28;20451;-41
2023/01/05 11:44:22;;;;;;;0.75;0.60;;;;;;;;;;4169220;28;20053;-41
2023/01/05 11:46:23;;;;;;;0.77;0.50;;;;;;;;;;4165896;28;20050;-41
2023/01/05 11:48:31;;;;;;;1.42;0.45;;;;;;;;;;4168779;28;20052;-41
2023/01/05 11:50:47;;;;;;;0.70;0.40;;;;;;;;;;4183604;28;20495;-41
2023/01/05 11:52:50;;;;;;;1.00;0.50;;;;;;;;;;4183533;28;20095;-41
2023/01/05 11:54:52;;;;;;;0.50;0.40;;;;;;;;;;4189809;28;20056;-41
2023/01/05 11:57:26;;;;;;;0.60;0.40;;;;;;;;;;4181199;28;20056;-41
2023/01/05 11:59:28;;;;;;;0.98;0.70;;;;;;;;;;4138575;28;20098;-41
2023/01/05 12:01:52;;;;;;;0.95;0.50;;;;;;;;;;4164320;28;20050;-41
2023/01/05 12:04:02;;;;;;;0.65;0.40;;;;;;;;;;4165134;28;20057;-40
2023/01/05 12:06:45;;;;;;;0.82;0.50;;;;;;;;;;4176853;28;20594;-41
2023/01/05 12:08:51;;;;;;;0.88;0.50;;;;;;;;;;4182755;28;20507;-41
2023/01/05 12:11:15;;;;;;;0.38;0.38;;;;;;;;;;4151913;28;20087;-41
2023/01/05 12:13:40;;;;;;;2.50;0.63;;;;;;;;;;4166266;28;20433;-37
2023/01/05 12:15:54;;;;;;;0.75;0.60;;;;;;;;;;4187533;28;20060;-38
2023/01/05 12:18:07;;;;;;;0.80;0.50;;;;;;;;;;4166893;28;20056;-41
2023/01/05 12:20:14;;;;;;;3.05;0.40;;;;;;;;;;4188905;28;20063;-40
2023/01/05 12:22:41;;;;;;;0.90;0.50;;;;;;;;;;4182447;28;20052;-41
2023/01/05 12:24:54;;;;;;;0.70;0.50;;;;;;;;;;4164506;28;20063;-44
2023/01/05 12:27:06;;;;;;;1.10;0.55;;;;;;;;;;4182887;28;20060;-41
2023/01/05 12:29:20;;;;;;;0.45;0.35;;;;;;;;;;4180374;28;20064;-39
2023/01/05 12:31:47;;;;;;;0.40;0.40;;;;;;;;;;4187891;28;20057;-42
2023/01/05 12:34:17;;;;;;;0.57;0.50;;;;;;;;;;4145997;28;20509;-40
2023/01/05 12:36:22;;;;;;;0.50;0.40;;;;;;;;;;4184240;28;20061;-42
2023/01/05 12:38:40;;;;;;;1.15;0.43;;;;;;;;;;4161023;28;20049;-40
2023/01/05 12:40:47;;;;;;;0.50;0.40;;;;;;;;;;4176554;28;20056;-41
2023/01/05 12:43:01;;;;;;;0.80;0.50;;;;;;;;;;4178744;28;20470;-41
2023/01/05 12:45:39;;;;;;;0.50;0.47;;;;;;;;;;4162566;28;20118;-41
2023/01/05 12:47:46;;;;;;;0.98;0.50;;;;;;;;;;4188936;28;20491;-42
2023/01/05 12:49:50;;;;;;;1.40;0.60;;;;;;;;;;4169885;28;20060;-42
2023/01/05 12:51:59;;;;;;;0.70;0.60;;;;;;;;;;4185708;28;20056;-40
2023/01/05 12:54:08;;;;;;;0.55;0.43;;;;;;;;;;4171250;28;20053;-42
2023/01/05 12:56:22;;;;;;;1.52;0.68;;;;;;;;;;4188920;28;20068;-41
2023/01/05 12:58:26;;;;;;;1.27;0.63;;;;;;;;;;4166745;28;20103;-41
2023/01/05 13:00:30;;;;;;;1.05;0.60;;;;;;;;;;4166283;28;20053;-41
2023/01/05 13:02:35;;;;;;;0.63;0.45;;;;;;;;;;4161756;28;20460;-41
2023/01/05 13:04:52;;;;;;;1.00;0.52;;;;;;;;;;4187024;28;20102;-39
2023/01/05 13:06:56;;;;;;;0.88;0.47;;;;;;;;;;4183113;28;20170;-40
2023/01/05 13:09:05;;;;;;;0.88;0.70;;;;;;;;;;4164698;28;20079;-40
2023/01/05 13:11:17;;;;;;;1.20;0.63;;;;;;;;;;4187223;28;20051;-40